Talkeetna, Alaska
Current Conditions -  °F | °C
As of 8:53 AM on Sunday 25 Jan 2015 (Local Time) from PATK Reporting Station
Overcast Overcast  
Wind Chill: -5°   Ceiling: 7000
Heat Index: -5°   Visibility: 10mi
Dew Point: -10°   Wind: 0mph
Humidity: 80%   Direction: NA
Pressure: 29.64"   Gusts: NA
Location:  62.31°N, 150.11°W
Report Text: PATK 251753Z 00000KT 10SM OVC070 M21/M23 A2964 RMK AO2 SLP048 60000 T12061233 11133 21206 53026 $
Loading
Personal Weather Stations






























Interactive Weather Map New forecast layout! Learn more

10-Day Weather Forecast

Advertisements
Track Severe Weather on mobile